createdAt,value
2018-04-16T00:00:21.374Z,100749.67
2018-04-16T00:05:23.851Z,100741.58
2018-04-16T00:10:26.347Z,100741.75
2018-04-16T00:15:28.854Z,100738.30
2018-04-16T00:20:31.350Z,100734.79
2018-04-16T00:25:33.801Z,100723.66
2018-04-16T00:30:37.078Z,100720.39
2018-04-16T00:35:45.705Z,100712.55
2018-04-16T00:40:53.736Z,100715.34
2018-04-16T00:46:01.719Z,100716.84
2018-04-16T00:51:10.447Z,100718.30
2018-04-16T00:56:18.957Z,100719.70
2018-04-16T01:01:27.168Z,100728.98
2018-04-16T01:06:35.305Z,100729.99
2018-04-16T01:11:43.779Z,100720.12
2018-04-16T01:16:51.930Z,100718.79
2018-04-16T01:21:59.980Z,100727.87
2018-04-16T01:27:08.460Z,100718.15
2018-04-16T01:32:16.668Z,100720.60
2018-04-16T01:37:24.768Z,100720.97
2018-04-16T01:42:32.848Z,100708.67
2018-04-16T01:47:41.046Z,100708.81
2018-04-16T01:52:49.429Z,100708.03
2018-04-16T01:57:58.496Z,100703.88
2018-04-16T02:03:06.905Z,100688.48
2018-04-16T02:08:15.644Z,100685.05
2018-04-16T02:13:23.652Z,100681.42
2018-04-16T02:18:31.790Z,100671.97
2018-04-16T02:23:39.813Z,100667.28
2018-04-16T02:28:48.012Z,100679.48
2018-04-16T02:33:56.271Z,100684.84
2018-04-16T02:39:04.550Z,100698.64
2018-04-16T02:44:12.739Z,100694.23
2018-04-16T02:49:20.758Z,100705.88
2018-04-16T02:54:28.794Z,100693.59
2018-04-16T02:59:36.803Z,100706.50
2018-04-16T03:04:45.029Z,100711.98
2018-04-16T03:09:52.980Z,100703.14
2018-04-16T03:15:01.011Z,100708.09
2018-04-16T03:20:09.181Z,100718.23
2018-04-16T03:25:17.159Z,100721.27
2018-04-16T03:30:25.295Z,100723.67
2018-04-16T03:35:33.469Z,100723.59
2018-04-16T03:40:41.825Z,100726.46
2018-04-16T03:46:03.389Z,100736.52
2018-04-16T03:51:21.569Z,100729.73
2018-04-16T03:56:25.080Z,100734.65
2018-04-16T04:01:27.575Z,100752.20
2018-04-16T04:06:30.074Z,100738.96
2018-04-16T04:11:32.565Z,100740.53
2018-04-16T04:16:37.863Z,100743.62
2018-04-16T04:21:44.097Z,100746.31
2018-04-16T04:26:58.203Z,100748.92
2018-04-16T04:32:00.976Z,100753.92
2018-04-16T04:37:03.464Z,100761.30
2018-04-16T04:42:12.935Z,100768.41
2018-04-16T04:47:15.967Z,100761.45
2018-04-16T04:52:18.462Z,100773.38
2018-04-16T04:57:20.985Z,100780.50
2018-04-16T05:02:23.462Z,100786.80
2018-04-16T05:07:25.971Z,100786.89
2018-04-16T05:12:28.455Z,100801.98
2018-04-16T05:17:31.952Z,100800.80
2018-04-16T05:22:35.280Z,100806.68
2018-04-16T05:27:39.125Z,100813.69
2018-04-16T05:32:41.648Z,100816.31
2018-04-16T05:37:45.500Z,100830.11
2018-04-16T05:42:48.041Z,100842.83
2018-04-16T05:47:50.514Z,100857.39
2018-04-16T05:52:52.982Z,100872.37
2018-04-16T05:57:55.620Z,100881.88
2018-04-16T06:02:58.140Z,100887.14
2018-04-16T06:08:00.616Z,100887.95
2018-04-16T06:13:03.139Z,100892.20
2018-04-16T06:18:05.728Z,100899.95
2018-04-16T06:23:08.425Z,100902.27
2018-04-16T06:28:11.194Z,100905.14
2018-04-16T06:33:13.848Z,100907.29
2018-04-16T06:38:16.384Z,100908.17
2018-04-16T06:43:23.427Z,100907.20
2018-04-16T06:48:26.005Z,100920.89
2018-04-16T06:53:28.847Z,100928.03
2018-04-16T06:58:31.476Z,100941.84
2018-04-16T07:03:34.930Z,100941.24
2018-04-16T07:08:37.687Z,100951.02
2018-04-16T07:13:40.466Z,100960.56
2018-04-16T07:18:42.963Z,100965.19
2018-04-16T07:23:45.549Z,100965.48
2018-04-16T07:28:48.110Z,100973.48
2018-04-16T07:33:50.671Z,100981.23
2018-04-16T07:38:53.167Z,100984.22
2018-04-16T07:43:55.642Z,100987.36
2018-04-16T07:48:58.211Z,100991.61
2018-04-16T07:54:00.706Z,100998.64
2018-04-16T07:59:03.220Z,100998.09
2018-04-16T08:04:05.802Z,101002.98
2018-04-16T08:09:08.395Z,101006.14
2018-04-16T08:14:10.909Z,101011.38
2018-04-16T08:19:13.446Z,101006.22
2018-04-16T08:24:15.931Z,101004.39
2018-04-16T08:29:18.419Z,101008.16
2018-04-16T08:34:20.924Z,101006.70
2018-04-16T08:39:23.413Z,101015.48
2018-04-16T08:44:25.915Z,101007.15
2018-04-16T08:49:28.403Z,100996.72
2018-04-16T08:54:32.364Z,100991.25
2018-04-16T08:59:34.895Z,101004.73
2018-04-16T09:04:37.406Z,100992.87
2018-04-16T09:09:39.954Z,100992.27
2018-04-16T09:14:43.435Z,100990.52
2018-04-16T09:19:45.901Z,100983.89
2018-04-16T09:24:48.566Z,100985.02
2018-04-16T09:29:51.109Z,100978.41
2018-04-16T09:34:53.611Z,100981.66
2018-04-16T09:39:56.156Z,100968.48
2018-04-16T09:44:58.667Z,100975.84
2018-04-16T09:50:01.183Z,100970.44
2018-04-16T09:55:03.652Z,100970.30
2018-04-16T10:00:06.360Z,100971.27
2018-04-16T10:05:09.406Z,100979.16
2018-04-16T10:10:11.976Z,100980.06
2018-04-16T10:15:14.454Z,100978.89
2018-04-16T10:20:16.951Z,100982.82
2018-04-16T10:25:19.479Z,100973.71
2018-04-16T10:30:21.942Z,100976.85
2018-04-16T10:35:24.442Z,100968.85
2018-04-16T10:40:27.017Z,100964.95
2018-04-16T10:45:29.508Z,100972.89
2018-04-16T10:50:32.012Z,100976.83
2018-04-16T10:55:35.905Z,100981.75
2018-04-16T11:00:38.489Z,100979.31
2018-04-16T11:05:41.003Z,100977.06
2018-04-16T11:10:45.065Z,100979.72
2018-04-16T11:15:47.537Z,100979.73
2018-04-16T11:20:50.025Z,100984.42
2018-04-16T11:25:52.493Z,100983.39
2018-04-16T11:30:54.986Z,100984.16
2018-04-16T11:35:57.467Z,100990.92
2018-04-16T11:40:59.953Z,100991.66
2018-04-16T11:46:02.437Z,100995.12
2018-04-16T11:51:05.007Z,101000.80
2018-04-16T11:56:07.547Z,101008.81
2018-04-16T12:01:10.105Z,101016.43
2018-04-16T12:06:12.666Z,101025.25
2018-04-16T12:11:15.147Z,101027.98
2018-04-16T12:16:17.646Z,101038.58
2018-04-16T12:21:20.180Z,101038.38
2018-04-16T12:26:22.634Z,101036.28
2018-04-16T12:31:25.128Z,101030.25
2018-04-16T12:36:27.590Z,101038.61
2018-04-16T12:41:30.137Z,101043.30
2018-04-16T12:46:32.608Z,101052.52
2018-04-16T12:51:35.137Z,101054.33
2018-04-16T12:56:37.705Z,101049.23
2018-04-16T13:01:40.247Z,101052.21
2018-04-16T13:06:42.798Z,101053.30
2018-04-16T13:11:45.297Z,101052.27
2018-04-16T13:16:47.796Z,101052.87
2018-04-16T13:21:50.255Z,101053.33
2018-04-16T13:26:52.725Z,101055.09
2018-04-16T13:31:55.229Z,101062.62
2018-04-16T13:36:57.712Z,101063.21
2018-04-16T13:42:00.199Z,101066.80
2018-04-16T13:47:02.709Z,101080.10
2018-04-16T13:52:08.148Z,101085.16
2018-04-16T13:57:10.645Z,101083.62
2018-04-16T14:02:13.156Z,101090.28
2018-04-16T14:07:15.652Z,101094.98
2018-04-16T14:12:18.122Z,101095.41
2018-04-16T14:17:20.706Z,101108.49
2018-04-16T14:22:24.318Z,101108.05
2018-04-16T14:27:27.785Z,101106.67
2018-04-16T14:32:30.265Z,101109.95
2018-04-16T14:37:32.724Z,101115.25
2018-04-16T14:42:36.087Z,101120.59
2018-04-16T14:47:38.606Z,101118.39
2018-04-16T14:52:41.093Z,101129.06
2018-04-16T14:57:43.551Z,101134.86
2018-04-16T15:02:46.034Z,101134.42
2018-04-16T15:07:48.507Z,101141.77
2018-04-16T15:12:50.989Z,101144.50
2018-04-16T15:17:53.453Z,101145.64
2018-04-16T15:22:56.902Z,101152.29
2018-04-16T15:27:59.439Z,101154.08
2018-04-16T15:33:01.915Z,101152.55
2018-04-16T15:38:04.562Z,101159.37
2018-04-16T15:43:07.168Z,101154.05
2018-04-16T15:48:09.707Z,101160.77
2018-04-16T15:53:12.257Z,101165.86
2018-04-16T15:58:14.723Z,101172.41
2018-04-16T16:03:17.228Z,101167.89
2018-04-16T16:08:19.731Z,101162.44
2018-04-16T16:13:22.236Z,101166.93
2018-04-16T16:18:24.750Z,101165.74
2018-04-16T16:23:27.306Z,101175.53
2018-04-16T16:28:29.800Z,101177.48
2018-04-16T16:33:32.408Z,101176.45
2018-04-16T16:38:34.941Z,101175.27
2018-04-16T16:43:37.595Z,101179.73
2018-04-16T16:48:40.136Z,101182.00
2018-04-16T16:53:42.647Z,101180.72
2018-04-16T16:58:45.235Z,101181.73
2018-04-16T17:03:47.794Z,101188.64
2018-04-16T17:08:50.304Z,101192.06
2018-04-16T17:13:52.780Z,101198.20
2018-04-16T17:18:55.231Z,101203.71
2018-04-16T17:23:59.254Z,101213.83
2018-04-16T17:29:01.740Z,101221.99
2018-04-16T17:34:04.872Z,101219.72
2018-04-16T17:39:07.511Z,101218.20
2018-04-16T17:44:11.865Z,101222.66
2018-04-16T17:49:14.668Z,101228.38
2018-04-16T17:54:17.167Z,101236.31
2018-04-16T17:59:19.639Z,101234.95
2018-04-16T18:04:22.201Z,101238.36
2018-04-16T18:09:24.856Z,101246.28
2018-04-16T18:14:27.324Z,101249.92
2018-04-16T18:19:29.817Z,101257.47
2018-04-16T18:24:32.296Z,101263.63
2018-04-16T18:29:35.235Z,101270.95
2018-04-16T18:34:38.483Z,101286.19
2018-04-16T18:39:41.322Z,101291.73
2018-04-16T18:44:44.206Z,101305.31
2018-04-16T18:49:46.771Z,101316.31
2018-04-16T18:54:49.597Z,101321.63
2018-04-16T18:59:52.093Z,101330.47
2018-04-16T19:04:54.592Z,101333.62
2018-04-16T19:09:58.244Z,101332.48
2018-04-16T19:15:01.399Z,101345.08
2018-04-16T19:20:04.705Z,101356.85
2018-04-16T19:25:07.455Z,101363.24
2018-04-16T19:30:10.017Z,101360.40
2018-04-16T19:35:12.613Z,101372.94
2018-04-16T19:40:15.141Z,101386.44
2018-04-16T19:45:18.073Z,101388.77
2018-04-16T19:50:20.553Z,101391.30
2018-04-16T19:55:23.066Z,101397.83
2018-04-16T20:00:25.598Z,101408.91
2018-04-16T20:05:28.777Z,101417.38
2018-04-16T20:10:32.377Z,101424.61
2018-04-16T20:15:35.361Z,101421.59
2018-04-16T20:20:39.175Z,101425.12
2018-04-16T20:25:45.653Z,101432.70
2018-04-16T20:30:48.479Z,101447.22
2018-04-16T20:35:51.450Z,101456.70
2018-04-16T20:40:54.071Z,101463.00
2018-04-16T20:45:56.578Z,101465.61
2018-04-16T20:50:59.110Z,101466.11
2018-04-16T20:56:01.604Z,101469.45
2018-04-16T21:01:04.126Z,101475.59
2018-04-16T21:06:06.927Z,101478.51
2018-04-16T21:11:09.678Z,101489.33
2018-04-16T21:16:12.343Z,101487.61
2018-04-16T21:21:15.073Z,101493.61
2018-04-16T21:26:17.668Z,101499.62
2018-04-16T21:31:20.192Z,101501.66
2018-04-16T21:36:22.693Z,101500.52
2018-04-16T21:41:25.165Z,101514.61
2018-04-16T21:46:27.637Z,101519.13
2018-04-16T21:51:30.123Z,101520.85
2018-04-16T21:56:32.621Z,101521.67
2018-04-16T22:01:35.814Z,101521.52
2018-04-16T22:06:38.548Z,101538.10
2018-04-16T22:11:41.216Z,101539.59
2018-04-16T22:16:43.770Z,101535.77
2018-04-16T22:21:46.264Z,101534.87
2018-04-16T22:26:48.743Z,101546.42
2018-04-16T22:31:51.315Z,101553.17
2018-04-16T22:36:53.789Z,101557.02
2018-04-16T22:41:56.270Z,101563.19
2018-04-16T22:46:59.616Z,101572.44
2018-04-16T22:52:02.077Z,101573.78
2018-04-16T22:57:04.640Z,101582.31
2018-04-16T23:02:07.213Z,101587.72
2018-04-16T23:07:10.433Z,101604.86
2018-04-16T23:12:13.001Z,101614.77
2018-04-16T23:17:15.495Z,101622.45
2018-04-16T23:22:18.014Z,101626.62
2018-04-16T23:27:20.504Z,101629.05
2018-04-16T23:32:23.288Z,101642.45
2018-04-16T23:37:25.788Z,101658.13
2018-04-16T23:42:28.254Z,101661.93
2018-04-16T23:47:30.759Z,101669.59
2018-04-16T23:52:33.474Z,101683.34
2018-04-16T23:57:36.021Z,101688.72
